sensor_id;sensor_type;location;lat;lon;timestamp;pressure;altitude;pressure_sealevel;temperature;humidity
15634;BME280;14654;48.898;8.308;2023-02-20T00:01:51;101520.44;;;6.91;100.00
15634;BME280;14654;48.898;8.308;2023-02-20T00:04:18;101519.47;;;6.86;100.00
15634;BME280;14654;48.898;8.308;2023-02-20T00:06:43;101520.22;;;6.82;100.00
15634;BME280;14654;48.898;8.308;2023-02-20T00:09:09;101523.53;;;6.78;100.00
15634;BME280;14654;48.898;8.308;2023-02-20T00:11:34;101514.84;;;6.73;100.00
15634;BME280;14654;48.898;8.308;2023-02-20T00:13:59;101510.44;;;6.68;100.00
15634;BME280;14654;48.898;8.308;2023-02-20T00:16:24;101507.72;;;6.64;100.00
15634;BME280;14654;48.898;8.308;2023-02-20T00:18:50;101505.06;;;6.61;100.00
15634;BME280;14654;48.898;8.308;2023-02-20T00:21:15;101505.81;;;6.56;100.00
15634;BME280;14654;48.898;8.308;2023-02-20T00:23:40;101501.38;;;6.51;100.00
15634;BME280;14654;48.898;8.308;2023-02-20T00:26:10;101504.69;;;6.47;100.00
15634;BME280;14654;48.898;8.308;2023-02-20T00:28:40;101502.91;;;6.44;100.00
15634;BME280;14654;48.898;8.308;2023-02-20T00:31:07;101510.50;;;6.39;100.00
15634;BME280;14654;48.898;8.308;2023-02-20T00:33:33;101515.56;;;6.36;100.00
15634;BME280;14654;48.898;8.308;2023-02-20T00:35:58;101517.16;;;6.33;100.00
15634;BME280;14654;48.898;8.308;2023-02-20T00:38:24;101524.78;;;6.30;100.00
15634;BME280;14654;48.898;8.308;2023-02-20T00:40:49;101528.16;;;6.27;100.00
15634;BME280;14654;48.898;8.308;2023-02-20T00:43:15;101534.94;;;6.25;100.00
15634;BME280;14654;48.898;8.308;2023-02-20T00:45:40;101534.78;;;6.20;100.00
15634;BME280;14654;48.898;8.308;2023-02-20T00:48:06;101527.88;;;6.18;100.00
15634;BME280;14654;48.898;8.308;2023-02-20T00:50:31;101520.94;;;6.15;100.00
15634;BME280;14654;48.898;8.308;2023-02-20T00:52:56;101520.88;;;6.14;100.00
15634;BME280;14654;48.898;8.308;2023-02-20T00:55:22;101513.13;;;6.10;100.00
15634;BME280;14654;48.898;8.308;2023-02-20T00:57:47;101523.31;;;6.09;100.00
15634;BME280;14654;48.898;8.308;2023-02-20T01:00:27;101517.28;;;6.07;100.00
15634;BME280;14654;48.898;8.308;2023-02-20T01:02:54;101509.44;;;6.02;100.00
15634;BME280;14654;48.898;8.308;2023-02-20T01:05:20;101507.69;;;6.01;100.00
15634;BME280;14654;48.898;8.308;2023-02-20T01:07:45;101510.22;;;6.00;100.00
15634;BME280;14654;48.898;8.308;2023-02-20T01:10:11;101515.38;;;6.00;100.00
15634;BME280;14654;48.898;8.308;2023-02-20T01:12:37;101506.69;;;5.98;100.00
15634;BME280;14654;48.898;8.308;2023-02-20T01:15:04;101506.66;;;5.96;100.00
15634;BME280;14654;48.898;8.308;2023-02-20T01:17:29;101503.09;;;5.92;100.00
15634;BME280;14654;48.898;8.308;2023-02-20T01:19:55;101499.56;;;5.87;100.00
15634;BME280;14654;48.898;8.308;2023-02-20T01:22:21;101503.69;;;5.84;100.00
15634;BME280;14654;48.898;8.308;2023-02-20T01:24:46;101496.78;;;5.81;100.00
15634;BME280;14654;48.898;8.308;2023-02-20T01:27:11;101501.09;;;5.82;100.00
15634;BME280;14654;48.898;8.308;2023-02-20T01:29:37;101501.06;;;5.80;100.00
15634;BME280;14654;48.898;8.308;2023-02-20T01:32:02;101495.88;;;5.79;100.00
15634;BME280;14654;48.898;8.308;2023-02-20T01:34:27;101504.41;;;5.78;100.00
15634;BME280;14654;48.898;8.308;2023-02-20T01:36:53;101493.25;;;5.77;100.00
15634;BME280;14654;48.898;8.308;2023-02-20T01:39:21;101494.09;;;5.76;100.00
15634;BME280;14654;48.898;8.308;2023-02-20T01:41:49;101491.41;;;5.73;100.00
15634;BME280;14654;48.898;8.308;2023-02-20T01:44:22;101498.19;;;5.71;100.00
15634;BME280;14654;48.898;8.308;2023-02-20T01:46:58;101491.28;;;5.69;100.00
15634;BME280;14654;48.898;8.308;2023-02-20T01:49:30;101498.06;;;5.67;100.00
15634;BME280;14654;48.898;8.308;2023-02-20T01:52:02;101499.78;;;5.66;100.00
15634;BME280;14654;48.898;8.308;2023-02-20T01:54:30;101484.25;;;5.63;100.00
15634;BME280;14654;48.898;8.308;2023-02-20T01:56:58;101489.34;;;5.61;100.00
15634;BME280;14654;48.898;8.308;2023-02-20T01:59:29;101491.88;;;5.60;100.00
15634;BME280;14654;48.898;8.308;2023-02-20T02:01:56;101486.63;;;5.57;100.00
15634;BME280;14654;48.898;8.308;2023-02-20T02:04:22;101485.69;;;5.53;100.00
15634;BME280;14654;48.898;8.308;2023-02-20T02:06:50;101477.06;;;5.53;100.00
15634;BME280;14654;48.898;8.308;2023-02-20T02:11:48;101479.63;;;5.51;100.00
15634;BME280;14654;48.898;8.308;2023-02-20T02:14:14;101480.50;;;5.52;100.00
15634;BME280;14654;48.898;8.308;2023-02-20T02:16:45;101481.31;;;5.51;100.00
15634;BME280;14654;48.898;8.308;2023-02-20T02:19:37;101471.06;;;5.51;100.00
15634;BME280;14654;48.898;8.308;2023-02-20T02:43:59;101454.28;;;5.34;100.00
15634;BME280;14654;48.898;8.308;2023-02-20T02:46:33;101461.13;;;5.34;100.00
15634;BME280;14654;48.898;8.308;2023-02-20T02:49:06;101457.66;;;5.33;100.00
15634;BME280;14654;48.898;8.308;2023-02-20T02:51:38;101450.03;;;5.35;100.00
15634;BME280;14654;48.898;8.308;2023-02-20T02:56:40;101456.84;;;5.34;100.00
15634;BME280;14654;48.898;8.308;2023-02-20T02:59:08;101456.06;;;5.37;100.00
15634;BME280;14654;48.898;8.308;2023-02-20T03:01:37;101457.88;;;5.40;100.00
15634;BME280;14654;48.898;8.308;2023-02-20T03:04:06;101453.59;;;5.40;100.00
15634;BME280;14654;48.898;8.308;2023-02-20T03:06:36;101450.22;;;5.41;100.00
15634;BME280;14654;48.898;8.308;2023-02-20T03:09:09;101448.66;;;5.46;100.00
15634;BME280;14654;48.898;8.308;2023-02-20T03:11:37;101445.28;;;5.47;100.00
15634;BME280;14654;48.898;8.308;2023-02-20T03:14:11;101452.09;;;5.47;100.00
15634;BME280;14654;48.898;8.308;2023-02-20T03:17:31;101449.53;;;5.47;100.00
15634;BME280;14654;48.898;8.308;2023-02-20T03:20:14;101445.19;;;5.44;100.00
15634;BME280;14654;48.898;8.308;2023-02-20T03:22:47;101434.88;;;5.43;100.00
15634;BME280;14654;48.898;8.308;2023-02-20T03:25:19;101448.56;;;5.43;100.00
15634;BME280;14654;48.898;8.308;2023-02-20T03:27:50;101443.47;;;5.45;100.00
15634;BME280;14654;48.898;8.308;2023-02-20T03:30:18;101446.97;;;5.47;100.00
15634;BME280;14654;48.898;8.308;2023-02-20T03:32:46;101437.69;;;5.51;100.00
15634;BME280;14654;48.898;8.308;2023-02-20T03:35:33;101441.06;;;5.49;100.00
15634;BME280;14654;48.898;8.308;2023-02-20T03:38:20;101446.91;;;5.45;100.00
15634;BME280;14654;48.898;8.308;2023-02-20T03:41:07;101441.75;;;5.44;100.00
15634;BME280;14654;48.898;8.308;2023-02-20T03:43:52;101440.81;;;5.42;100.00
15634;BME280;14654;48.898;8.308;2023-02-20T03:46:20;101440.88;;;5.43;100.00
15634;BME280;14654;48.898;8.308;2023-02-20T03:48:57;101449.38;;;5.42;100.00
15634;BME280;14654;48.898;8.308;2023-02-20T03:51:23;101444.97;;;5.38;100.00
15634;BME280;14654;48.898;8.308;2023-02-20T03:53:49;101441.59;;;5.39;100.00
15634;BME280;14654;48.898;8.308;2023-02-20T03:56:23;101433.03;;;5.39;100.00
15634;BME280;14654;48.898;8.308;2023-02-20T03:58:54;101431.28;;;5.38;100.00
15634;BME280;14654;48.898;8.308;2023-02-20T04:01:24;101432.94;;;5.36;100.00
15634;BME280;14654;48.898;8.308;2023-02-20T04:03:51;101438.03;;;5.34;100.00
15634;BME280;14654;48.898;8.308;2023-02-20T04:06:19;101428.59;;;5.33;100.00
15634;BME280;14654;48.898;8.308;2023-02-20T04:09:02;101441.31;;;5.30;100.00
15634;BME280;14654;48.898;8.308;2023-02-20T04:11:34;101439.56;;;5.29;100.00
15634;BME280;14654;48.898;8.308;2023-02-20T04:14:00;101430.00;;;5.25;100.00
15634;BME280;14654;48.898;8.308;2023-02-20T04:16:27;101430.91;;;5.25;100.00
15634;BME280;14654;48.898;8.308;2023-02-20T04:18:54;101425.72;;;5.24;100.00
15634;BME280;14654;48.898;8.308;2023-02-20T04:21:27;101441.88;;;5.21;100.00
15634;BME280;14654;48.898;8.308;2023-02-20T04:24:01;101425.53;;;5.17;100.00
15634;BME280;14654;48.898;8.308;2023-02-20T04:26:28;101434.88;;;5.15;100.00
15634;BME280;14654;48.898;8.308;2023-02-20T04:28:54;101429.63;;;5.12;100.00
15634;BME280;14654;48.898;8.308;2023-02-20T04:31:21;101435.66;;;5.13;100.00
15634;BME280;14654;48.898;8.308;2023-02-20T04:33:47;101437.22;;;5.09;100.00
15634;BME280;14654;48.898;8.308;2023-02-20T04:36:12;101444.00;;;5.07;100.00
15634;BME280;14654;48.898;8.308;2023-02-20T04:38:38;101442.28;;;5.06;100.00
15634;BME280;14654;48.898;8.308;2023-02-20T04:41:03;101443.84;;;5.02;100.00
15634;BME280;14654;48.898;8.308;2023-02-20T04:43:29;101438.63;;;4.99;100.00
15634;BME280;14654;48.898;8.308;2023-02-20T04:45:54;101441.16;;;4.98;100.00
15634;BME280;14654;48.898;8.308;2023-02-20T04:48:19;101443.72;;;4.98;100.00
15634;BME280;14654;48.898;8.308;2023-02-20T04:50:45;101437.72;;;4.97;100.00
15634;BME280;14654;48.898;8.308;2023-02-20T04:53:10;101442.03;;;4.98;100.00
15634;BME280;14654;48.898;8.308;2023-02-20T04:55:35;101444.63;;;5.00;100.00
15634;BME280;14654;48.898;8.308;2023-02-20T04:58:01;101448.94;;;5.01;100.00
15634;BME280;14654;48.898;8.308;2023-02-20T05:00:26;101455.75;;;5.00;100.00
15634;BME280;14654;48.898;8.308;2023-02-20T05:02:52;101451.53;;;5.01;100.00
15634;BME280;14654;48.898;8.308;2023-02-20T05:05:23;101454.00;;;4.99;100.00
15634;BME280;14654;48.898;8.308;2023-02-20T05:07:54;101456.53;;;4.98;100.00
15634;BME280;14654;48.898;8.308;2023-02-20T05:10:20;101453.06;;;4.96;100.00
15634;BME280;14654;48.898;8.308;2023-02-20T05:12:46;101459.78;;;4.92;100.00
15634;BME280;14654;48.898;8.308;2023-02-20T05:15:12;101457.94;;;4.88;100.00
15634;BME280;14654;48.898;8.308;2023-02-20T05:17:37;101453.56;;;4.85;100.00
15634;BME280;14654;48.898;8.308;2023-02-20T05:20:04;101449.13;;;4.80;100.00
15634;BME280;14654;48.898;8.308;2023-02-20T05:22:29;101451.53;;;4.75;100.00
15634;BME280;14654;48.898;8.308;2023-02-20T05:24:55;101453.09;;;4.71;100.00
15634;BME280;14654;48.898;8.308;2023-02-20T05:27:22;101444.44;;;4.68;100.00
15634;BME280;14654;48.898;8.308;2023-02-20T05:29:50;101440.94;;;4.66;100.00
15634;BME280;14654;48.898;8.308;2023-02-20T05:32:18;101433.16;;;4.63;100.00
15634;BME280;14654;48.898;8.308;2023-02-20T05:34:44;101430.50;;;4.60;100.00
15634;BME280;14654;48.898;8.308;2023-02-20T05:37:11;101422.69;;;4.56;100.00
15634;BME280;14654;48.898;8.308;2023-02-20T05:39:37;101431.22;;;4.55;100.00
15634;BME280;14654;48.898;8.308;2023-02-20T05:42:04;101430.38;;;4.56;100.00
15634;BME280;14654;48.898;8.308;2023-02-20T05:44:29;101428.69;;;4.57;100.00
15634;BME280;14654;48.898;8.308;2023-02-20T05:46:54;101427.81;;;4.56;100.00
15634;BME280;14654;48.898;8.308;2023-02-20T05:49:20;101424.38;;;4.56;100.00
15634;BME280;14654;48.898;8.308;2023-02-20T05:51:46;101424.28;;;4.53;100.00
15634;BME280;14654;48.898;8.308;2023-02-20T05:54:13;101427.72;;;4.53;100.00
15634;BME280;14654;48.898;8.308;2023-02-20T05:56:43;101425.97;;;4.52;100.00
15634;BME280;14654;48.898;8.308;2023-02-20T05:59:09;101425.84;;;4.49;100.00
15634;BME280;14654;48.898;8.308;2023-02-20T06:01:35;101430.13;;;4.49;100.00
15634;BME280;14654;48.898;8.308;2023-02-20T06:04:00;101427.44;;;4.46;100.00
15634;BME280;14654;48.898;8.308;2023-02-20T06:06:33;101424.03;;;4.45;100.00
15634;BME280;14654;48.898;8.308;2023-02-20T06:08:59;101435.91;;;4.43;100.00
15634;BME280;14654;48.898;8.308;2023-02-20T06:11:24;101427.31;;;4.41;100.00
15634;BME280;14654;48.898;8.308;2023-02-20T06:13:50;101434.09;;;4.40;100.00
15634;BME280;14654;48.898;8.308;2023-02-20T06:16:25;101422.09;;;4.39;100.00
15634;BME280;14654;48.898;8.308;2023-02-20T06:18:51;101421.19;;;4.37;100.00
15634;BME280;14654;48.898;8.308;2023-02-20T06:21:16;101420.31;;;4.37;100.00
15634;BME280;14654;48.898;8.308;2023-02-20T06:23:42;101427.19;;;4.38;100.00
15634;BME280;14654;48.898;8.308;2023-02-20T06:26:10;101428.06;;;4.38;100.00
15634;BME280;14654;48.898;8.308;2023-02-20T06:28:36;101427.19;;;4.38;100.00
15634;BME280;14654;48.898;8.308;2023-02-20T06:31:02;101429.75;;;4.38;100.00
15634;BME280;14654;48.898;8.308;2023-02-20T06:33:28;101428.13;;;4.40;100.00
15634;BME280;14654;48.898;8.308;2023-02-20T06:35:53;101429.03;;;4.42;100.00
15634;BME280;14654;48.898;8.308;2023-02-20T06:38:18;101424.84;;;4.44;100.00
15634;BME280;14654;48.898;8.308;2023-02-20T06:40:44;101417.25;;;4.47;100.00
15634;BME280;14654;48.898;8.308;2023-02-20T06:43:09;101429.41;;;4.53;100.00
15634;BME280;14654;48.898;8.308;2023-02-20T06:45:34;101416.69;;;4.56;100.00
15634;BME280;14654;48.898;8.308;2023-02-20T06:48:01;101426.34;;;4.63;100.00
15634;BME280;14654;48.898;8.308;2023-02-20T06:50:27;101424.03;;;4.71;100.00
15634;BME280;14654;48.898;8.308;2023-02-20T06:52:52;101425.06;;;4.76;100.00
15634;BME280;14654;48.898;8.308;2023-02-20T06:55:17;101437.25;;;4.83;100.00
15634;BME280;14654;48.898;8.308;2023-02-20T06:57:43;101439.16;;;4.89;100.00
15634;BME280;14654;48.898;8.308;2023-02-20T07:00:08;101440.19;;;4.94;100.00
15634;BME280;14654;48.898;8.308;2023-02-20T07:02:34;101436.91;;;4.98;100.00
15634;BME280;14654;48.898;8.308;2023-02-20T07:05:01;101431.09;;;5.04;100.00
15634;BME280;14654;48.898;8.308;2023-02-20T07:07:26;101433.81;;;5.09;100.00
15634;BME280;14654;48.898;8.308;2023-02-20T07:09:52;101430.53;;;5.13;100.00
15634;BME280;14654;48.898;8.308;2023-02-20T07:12:17;101429.84;;;5.18;100.00
15634;BME280;14654;48.898;8.308;2023-02-20T07:14:43;101428.38;;;5.27;100.00
15634;BME280;14654;48.898;8.308;2023-02-20T07:17:08;101433.75;;;5.34;100.00
15634;BME280;14654;48.898;8.308;2023-02-20T07:19:33;101426.28;;;5.42;100.00
15634;BME280;14654;48.898;8.308;2023-02-20T07:21:58;101415.44;;;5.53;100.00
15634;BME280;14654;48.898;8.308;2023-02-20T07:24:24;101428.59;;;5.62;100.00
15634;BME280;14654;48.898;8.308;2023-02-20T07:26:49;101436.56;;;5.71;100.00
15634;BME280;14654;48.898;8.308;2023-02-20T07:29:14;101438.53;;;5.80;100.00
15634;BME280;14654;48.898;8.308;2023-02-20T07:31:40;101431.94;;;5.88;100.00
15634;BME280;14654;48.898;8.308;2023-02-20T07:34:05;101432.97;;;5.95;100.00
15634;BME280;14654;48.898;8.308;2023-02-20T07:36:31;101439.91;;;5.99;100.00
15634;BME280;14654;48.898;8.308;2023-02-20T07:38:59;101444.44;;;6.06;100.00
15634;BME280;14654;48.898;8.308;2023-02-20T07:41:26;101446.28;;;6.10;100.00
15634;BME280;14654;48.898;8.308;2023-02-20T07:43:54;101432.75;;;6.18;100.00
15634;BME280;14654;48.898;8.308;2023-02-20T07:46:19;101438.91;;;6.23;100.00
15634;BME280;14654;48.898;8.308;2023-02-20T07:48:44;101442.56;;;6.31;100.00
15634;BME280;14654;48.898;8.308;2023-02-20T07:51:10;101444.41;;;6.37;100.00
15634;BME280;14654;48.898;8.308;2023-02-20T07:53:35;101445.50;;;6.45;100.00
15634;BME280;14654;48.898;8.308;2023-02-20T07:56:00;101442.31;;;6.54;100.00
15634;BME280;14654;48.898;8.308;2023-02-20T07:58:26;101452.81;;;6.63;100.00
15634;BME280;14654;48.898;8.308;2023-02-20T08:00:51;101451.34;;;6.71;100.00
15634;BME280;14654;48.898;8.308;2023-02-20T08:03:18;101449.81;;;6.80;100.00
15634;BME280;14654;48.898;8.308;2023-02-20T08:05:43;101441.44;;;6.87;100.00
15634;BME280;14654;48.898;8.308;2023-02-20T08:08:09;101442.47;;;6.95;100.00
15634;BME280;14654;48.898;8.308;2023-02-20T08:10:35;101440.13;;;7.05;100.00
15634;BME280;14654;48.898;8.308;2023-02-20T08:13:00;101436.06;;;7.14;100.00
15634;BME280;14654;48.898;8.308;2023-02-20T08:15:27;101444.88;;;7.24;100.00
15634;BME280;14654;48.898;8.308;2023-02-20T08:17:52;101451.13;;;7.36;100.00
15634;BME280;14654;48.898;8.308;2023-02-20T08:20:19;101450.47;;;7.44;100.00
15634;BME280;14654;48.898;8.308;2023-02-20T08:22:46;101452.47;;;7.56;100.00
15634;BME280;14654;48.898;8.308;2023-02-20T08:25:11;101455.25;;;7.66;100.00
15634;BME280;14654;48.898;8.308;2023-02-20T08:27:41;101449.47;;;7.76;100.00
15634;BME280;14654;48.898;8.308;2023-02-20T08:30:20;101449.66;;;7.87;100.00
15634;BME280;14654;48.898;8.308;2023-02-20T08:32:48;101444.81;;;7.99;100.00
15634;BME280;14654;48.898;8.308;2023-02-20T08:35:14;101457.03;;;8.11;100.00
15634;BME280;14654;48.898;8.308;2023-02-20T08:37:39;101444.38;;;8.22;100.00
15634;BME280;14654;48.898;8.308;2023-02-20T08:40:05;101448.91;;;8.35;100.00
15634;BME280;14654;48.898;8.308;2023-02-20T08:42:33;101445.75;;;8.49;100.00
15634;BME280;14654;48.898;8.308;2023-02-20T08:44:59;101437.44;;;8.64;100.00
15634;BME280;14654;48.898;8.308;2023-02-20T08:47:24;101430.78;;;8.77;100.00
15634;BME280;14654;48.898;8.308;2023-02-20T08:49:50;101432.69;;;8.89;100.00
15634;BME280;14654;48.898;8.308;2023-02-20T08:52:15;101432.03;;;9.02;100.00
15634;BME280;14654;48.898;8.308;2023-02-20T08:54:46;101430.53;;;9.17;100.00
15634;BME280;14654;48.898;8.308;2023-02-20T08:57:13;101432.44;;;9.27;100.00
15634;BME280;14654;48.898;8.308;2023-02-20T08:59:39;101423.97;;;9.39;100.00
15634;BME280;14654;48.898;8.308;2023-02-20T09:02:05;101428.44;;;9.51;100.00
15634;BME280;14654;48.898;8.308;2023-02-20T09:04:31;101432.88;;;9.59;100.00
15634;BME280;14654;48.898;8.308;2023-02-20T09:06:56;101427.84;;;9.70;100.00
15634;BME280;14654;48.898;8.308;2023-02-20T09:09:22;101428.00;;;9.81;98.87
15634;BME280;14654;48.898;8.308;2023-02-20T09:11:47;101424.66;;;9.91;97.48
15634;BME280;14654;48.898;8.308;2023-02-20T09:14:12;101422.97;;;9.95;97.02
15634;BME280;14654;48.898;8.308;2023-02-20T09:16:38;101426.50;;;10.00;97.00
15634;BME280;14654;48.898;8.308;2023-02-20T09:19:07;101416.19;;;10.06;97.28
15634;BME280;14654;48.898;8.308;2023-02-20T09:21:32;101411.09;;;10.13;97.09
15634;BME280;14654;48.898;8.308;2023-02-20T09:23:57;101411.16;;;10.17;97.06
15634;BME280;14654;48.898;8.308;2023-02-20T09:26:23;101407.78;;;10.26;96.51
15634;BME280;14654;48.898;8.308;2023-02-20T09:28:48;101411.34;;;10.34;95.62
15634;BME280;14654;48.898;8.308;2023-02-20T09:31:13;101409.69;;;10.40;94.99
15634;BME280;14654;48.898;8.308;2023-02-20T09:33:43;101402.84;;;10.46;95.27
15634;BME280;14654;48.898;8.308;2023-02-20T09:36:09;101405.50;;;10.51;94.84
15634;BME280;14654;48.898;8.308;2023-02-20T09:38:34;101404.66;;;10.55;94.53
15634;BME280;14654;48.898;8.308;2023-02-20T09:40:59;101397.78;;;10.57;92.85
15634;BME280;14654;48.898;8.308;2023-02-20T09:43:45;101403.00;;;10.62;92.44
15634;BME280;14654;48.898;8.308;2023-02-20T09:46:17;101402.16;;;10.67;92.73
15634;BME280;14654;48.898;8.308;2023-02-20T09:51:39;101385.03;;;10.79;92.32
15634;BME280;14654;48.898;8.308;2023-02-20T09:54:09;101379.91;;;10.88;92.60
15634;BME280;14654;48.898;8.308;2023-02-20T09:56:44;101383.44;;;10.98;91.87
15634;BME280;14654;48.898;8.308;2023-02-20T09:59:33;101373.09;;;11.04;91.39
15634;BME280;14654;48.898;8.308;2023-02-20T10:04:43;101377.47;;;11.10;90.97
15634;BME280;14654;48.898;8.308;2023-02-20T10:07:23;101368.84;;;11.12;89.88
15634;BME280;14654;48.898;8.308;2023-02-20T10:09:50;101361.94;;;11.11;89.69
15634;BME280;14654;48.898;8.308;2023-02-20T10:12:19;101359.34;;;11.11;89.63
15634;BME280;14654;48.898;8.308;2023-02-20T10:15:12;101359.31;;;11.08;90.04
15634;BME280;14654;48.898;8.308;2023-02-20T10:17:49;101358.47;;;11.08;90.45
15634;BME280;14654;48.898;8.308;2023-02-20T10:22:57;101362.00;;;11.22;90.85
15634;BME280;14654;48.898;8.308;2023-02-20T10:25:34;101349.06;;;11.32;90.64
15634;BME280;14654;48.898;8.308;2023-02-20T10:28:17;101349.09;;;11.36;89.75
15634;BME280;14654;48.898;8.308;2023-02-20T10:33:35;101356.03;;;11.42;89.67
15634;BME280;14654;48.898;8.308;2023-02-20T10:38:40;101344.81;;;11.43;88.71
15634;BME280;14654;48.898;8.308;2023-02-20T10:41:29;101349.16;;;11.47;88.76
15634;BME280;14654;48.898;8.308;2023-02-20T10:46:39;101336.25;;;11.58;88.01
15634;BME280;14654;48.898;8.308;2023-02-20T10:49:10;101345.75;;;11.64;88.12
15634;BME280;14654;48.898;8.308;2023-02-20T10:51:44;101342.31;;;11.66;88.15
15634;BME280;14654;48.898;8.308;2023-02-20T10:54:18;101327.59;;;11.64;88.37
15634;BME280;14654;48.898;8.308;2023-02-20T10:56:58;101345.78;;;11.67;87.91
15634;BME280;14654;48.898;8.308;2023-02-20T11:01:57;101344.06;;;11.70;88.35
15634;BME280;14654;48.898;8.308;2023-02-20T11:04:28;101337.13;;;11.74;88.32
15634;BME280;14654;48.898;8.308;2023-02-20T11:06:59;101339.75;;;11.77;88.25
15634;BME280;14654;48.898;8.308;2023-02-20T11:09:25;101327.66;;;11.81;87.70
15634;BME280;14654;48.898;8.308;2023-02-20T11:11:54;101327.66;;;11.88;87.03
15634;BME280;14654;48.898;8.308;2023-02-20T11:17:07;101318.16;;;11.95;85.69
15634;BME280;14654;48.898;8.308;2023-02-20T11:19:41;101332.03;;;11.96;86.18
15634;BME280;14654;48.898;8.308;2023-02-20T11:22:08;101323.41;;;11.98;86.32
15634;BME280;14654;48.898;8.308;2023-02-20T11:24:40;101325.16;;;12.02;86.84
15634;BME280;14654;48.898;8.308;2023-02-20T11:27:18;101321.69;;;12.07;86.22
15634;BME280;14654;48.898;8.308;2023-02-20T11:30:03;101312.19;;;12.09;86.23
15634;BME280;14654;48.898;8.308;2023-02-20T11:32:35;101305.25;;;12.09;86.10
15634;BME280;14654;48.898;8.308;2023-02-20T11:37:42;101294.88;;;12.11;84.84
15634;BME280;14654;48.898;8.308;2023-02-20T11:40:29;101294.88;;;12.11;85.16
15634;BME280;14654;48.898;8.308;2023-02-20T11:43:15;101295.75;;;12.08;84.96
15634;BME280;14654;48.898;8.308;2023-02-20T11:45:43;101281.06;;;12.09;85.16
15634;BME280;14654;48.898;8.308;2023-02-20T11:48:13;101272.41;;;12.13;85.43
15634;BME280;14654;48.898;8.308;2023-02-20T11:50:52;101273.25;;;12.15;85.03
15634;BME280;14654;48.898;8.308;2023-02-20T11:53:29;101267.22;;;12.17;84.64
15634;BME280;14654;48.898;8.308;2023-02-20T11:56:11;101260.31;;;12.24;84.62
15634;BME280;14654;48.898;8.308;2023-02-20T11:58:38;101258.56;;;12.29;84.50
15634;BME280;14654;48.898;8.308;2023-02-20T12:01:04;101249.91;;;12.33;83.84
15634;BME280;14654;48.898;8.308;2023-02-20T12:03:35;101249.91;;;12.40;84.02
15634;BME280;14654;48.898;8.308;2023-02-20T12:08:59;101248.16;;;12.56;83.15
15634;BME280;14654;48.898;8.308;2023-02-20T12:11:26;101247.28;;;12.61;82.42
15634;BME280;14654;48.898;8.308;2023-02-20T12:13:55;101245.53;;;12.65;81.95
15634;BME280;14654;48.898;8.308;2023-02-20T12:16:41;101241.19;;;12.64;81.81
15634;BME280;14654;48.898;8.308;2023-02-20T12:19:17;101237.75;;;12.67;81.34
15634;BME280;14654;48.898;8.308;2023-02-20T12:26:59;101210.03;;;12.73;81.71
15634;BME280;14654;48.898;8.308;2023-02-20T12:29:42;101203.09;;;12.75;82.08
15634;BME280;14654;48.898;8.308;2023-02-20T12:37:50;101188.28;;;12.99;80.21
15634;BME280;14654;48.898;8.308;2023-02-20T12:48:55;101157.03;;;13.13;79.48
15634;BME280;14654;48.898;8.308;2023-02-20T12:54:31;101147.47;;;13.20;79.04
15634;BME280;14654;48.898;8.308;2023-02-20T12:59:27;101150.03;;;13.24;79.57
15634;BME280;14654;48.898;8.308;2023-02-20T13:02:01;101145.66;;;13.30;79.26
15634;BME280;14654;48.898;8.308;2023-02-20T13:04:49;101141.31;;;13.33;78.70
15634;BME280;14654;48.898;8.308;2023-02-20T13:07:20;101142.16;;;13.34;78.68
15634;BME280;14654;48.898;8.308;2023-02-20T13:10:02;101135.22;;;13.34;77.87
15634;BME280;14654;48.898;8.308;2023-02-20T13:12:28;101136.94;;;13.34;78.32
15634;BME280;14654;48.898;8.308;2023-02-20T13:15:06;101124.81;;;13.37;78.39
15634;BME280;14654;48.898;8.308;2023-02-20T13:20:21;101128.28;;;13.38;78.95
15634;BME280;14654;48.898;8.308;2023-02-20T13:25:47;101126.53;;;13.37;78.51
15634;BME280;14654;48.898;8.308;2023-02-20T13:31:08;101123.94;;;13.41;78.54
15634;BME280;14654;48.898;8.308;2023-02-20T13:33:34;101133.47;;;13.41;78.63
15634;BME280;14654;48.898;8.308;2023-02-20T13:36:03;101121.31;;;13.45;78.66
15634;BME280;14654;48.898;8.308;2023-02-20T13:38:30;101119.59;;;13.45;78.47
15634;BME280;14654;48.898;8.308;2023-02-20T13:45:47;101096.19;;;13.45;78.74
15634;BME280;14654;48.898;8.308;2023-02-20T13:54:11;101079.72;;;13.45;78.59
15634;BME280;14654;48.898;8.308;2023-02-20T13:59:07;101071.91;;;13.45;78.47
15634;BME280;14654;48.898;8.308;2023-02-20T14:02:11;101071.06;;;13.44;78.55
15634;BME280;14654;48.898;8.308;2023-02-20T14:04:37;101064.16;;;13.40;78.79
15634;BME280;14654;48.898;8.308;2023-02-20T14:07:02;101058.94;;;13.41;78.21
15634;BME280;14654;48.898;8.308;2023-02-20T14:09:28;101052.00;;;13.44;78.31
15634;BME280;14654;48.898;8.308;2023-02-20T14:12:03;101057.19;;;13.44;77.93
15634;BME280;14654;48.898;8.308;2023-02-20T14:14:50;101039.00;;;13.42;77.91
15634;BME280;14654;48.898;8.308;2023-02-20T14:17:18;101044.19;;;13.39;78.34
15634;BME280;14654;48.898;8.308;2023-02-20T14:19:47;101040.75;;;13.40;77.83
15634;BME280;14654;48.898;8.308;2023-02-20T14:24:46;101031.25;;;13.31;77.96
15634;BME280;14654;48.898;8.308;2023-02-20T14:27:28;101028.66;;;13.31;78.65
15634;BME280;14654;48.898;8.308;2023-02-20T14:30:26;101015.69;;;13.30;78.75
15634;BME280;14654;48.898;8.308;2023-02-20T14:32:54;101014.84;;;13.26;78.88
15634;BME280;14654;48.898;8.308;2023-02-20T14:40:43;101004.50;;;13.20;78.84
15634;BME280;14654;48.898;8.308;2023-02-20T14:43:15;101009.72;;;13.17;79.32
15634;BME280;14654;48.898;8.308;2023-02-20T14:45:43;101007.16;;;13.15;79.42
15634;BME280;14654;48.898;8.308;2023-02-20T14:48:24;101000.22;;;13.14;78.98
15634;BME280;14654;48.898;8.308;2023-02-20T14:51:22;101000.25;;;13.09;79.00